createdAt,value
2019-04-05T00:00:50.530Z,99673.66
2019-04-05T00:03:21.852Z,99677.37
2019-04-05T00:05:54.293Z,99681.48
2019-04-05T00:08:25.640Z,99678.61
2019-04-05T00:10:56.912Z,99681.48
2019-04-05T00:13:28.251Z,99677.14
2019-04-05T00:15:59.593Z,99677.37
2019-04-05T00:18:30.953Z,99677.16
2019-04-05T00:21:02.384Z,99676.04
2019-04-05T00:23:33.717Z,99680.35
2019-04-05T00:26:05.019Z,99685.80
2019-04-05T00:28:36.414Z,99687.22
2019-04-05T00:31:07.733Z,99686.90
2019-04-05T00:33:39.105Z,99688.83
2019-04-05T00:36:10.459Z,99688.70
2019-04-05T00:38:41.817Z,99688.37
2019-04-05T00:41:13.225Z,99693.39
2019-04-05T00:43:44.696Z,99696.22
2019-04-05T00:46:16.043Z,99688.84
2019-04-05T00:48:47.383Z,99692.94
2019-04-05T00:51:18.651Z,99697.69
2019-04-05T00:53:50.004Z,99696.05
2019-04-05T00:56:21.376Z,99699.75
2019-04-05T00:58:52.655Z,99694.90
2019-04-05T01:01:24.486Z,99696.37
2019-04-05T01:03:55.834Z,99696.37
2019-04-05T01:06:28.458Z,99689.26
2019-04-05T01:09:00.817Z,99690.54
2019-04-05T01:11:32.088Z,99688.31
2019-04-05T01:14:03.179Z,99683.02
2019-04-05T01:16:34.531Z,99684.67
2019-04-05T01:19:05.864Z,99688.31
2019-04-05T01:21:39.941Z,99684.81
2019-04-05T01:24:11.363Z,99688.45
2019-04-05T01:26:43.227Z,99685.09
2019-04-05T01:29:14.511Z,99687.52
2019-04-05T01:31:45.868Z,99684.25
2019-04-05T01:34:17.284Z,99681.92
2019-04-05T01:36:48.567Z,99686.42
2019-04-05T01:39:19.898Z,99687.41
2019-04-05T01:41:51.289Z,99687.69
2019-04-05T01:44:22.658Z,99690.16
2019-04-05T01:46:54.011Z,99688.04
2019-04-05T01:49:25.382Z,99692.24
2019-04-05T01:51:56.746Z,99688.26
2019-04-05T01:54:29.302Z,99699.58
2019-04-05T01:57:00.806Z,99698.73
2019-04-05T01:59:32.148Z,99698.64
2019-04-05T02:02:03.535Z,99703.42
2019-04-05T02:04:35.995Z,99704.42
2019-04-05T02:07:07.391Z,99704.65
2019-04-05T02:09:38.760Z,99702.33
2019-04-05T02:12:10.074Z,99710.14
2019-04-05T02:14:41.465Z,99711.99
2019-04-05T02:17:12.829Z,99713.27
2019-04-05T02:19:44.170Z,99711.33
2019-04-05T02:22:15.635Z,99717.23
2019-04-05T02:24:46.902Z,99718.72
2019-04-05T02:27:18.296Z,99715.06
2019-04-05T02:29:49.664Z,99717.58
2019-04-05T02:32:21.141Z,99720.94
2019-04-05T02:34:52.677Z,99720.32
2019-04-05T02:37:23.956Z,99720.47
2019-04-05T02:39:55.290Z,99728.80
2019-04-05T02:42:26.595Z,99730.52
2019-04-05T02:44:57.850Z,99729.21
2019-04-05T02:47:29.194Z,99734.04
2019-04-05T02:50:00.535Z,99736.00
2019-04-05T02:52:31.854Z,99739.12
2019-04-05T02:55:03.232Z,99741.14
2019-04-05T02:57:34.531Z,99744.03
2019-04-05T03:00:05.921Z,99740.16
2019-04-05T03:02:37.394Z,99749.70
2019-04-05T03:05:08.768Z,99752.42
2019-04-05T03:07:40.089Z,99756.16
2019-04-05T03:10:14.570Z,99752.56
2019-04-05T03:12:45.970Z,99754.91
2019-04-05T03:15:17.333Z,99754.77
2019-04-05T03:17:48.641Z,99763.89
2019-04-05T03:20:20.001Z,99769.19
2019-04-05T03:22:51.341Z,99768.15
2019-04-05T03:25:22.702Z,99771.17
2019-04-05T03:27:54.062Z,99782.52
2019-04-05T03:30:25.422Z,99777.59
2019-04-05T03:32:56.804Z,99780.27
2019-04-05T03:35:28.279Z,99785.80
2019-04-05T03:37:59.601Z,99782.11
2019-04-05T03:40:30.963Z,99789.50
2019-04-05T03:43:02.366Z,99783.88
2019-04-05T03:45:33.757Z,99788.19
2019-04-05T03:48:05.152Z,99792.16
2019-04-05T03:50:36.573Z,99795.39
2019-04-05T03:53:07.920Z,99799.73
2019-04-05T03:55:39.256Z,99799.25
2019-04-05T03:58:10.603Z,99803.84
2019-04-05T04:00:42.112Z,99812.38
2019-04-05T04:03:13.538Z,99812.99
2019-04-05T04:05:44.838Z,99816.77
2019-04-05T04:08:16.231Z,99814.66
2019-04-05T04:10:48.801Z,99816.84
2019-04-05T04:13:20.151Z,99818.64
2019-04-05T04:15:51.918Z,99824.72
2019-04-05T04:18:23.311Z,99828.48
2019-04-05T04:20:57.785Z,99825.16
2019-04-05T04:23:30.037Z,99828.22
2019-04-05T04:26:01.405Z,99827.35
2019-04-05T04:28:32.800Z,99836.52
2019-04-05T04:31:04.104Z,99827.63
2019-04-05T04:33:36.463Z,99834.34
2019-04-05T04:36:07.867Z,99835.83
2019-04-05T04:38:39.556Z,99826.66
2019-04-05T04:41:10.980Z,99831.88
2019-04-05T04:43:42.359Z,99834.56
2019-04-05T04:46:13.874Z,99835.95
2019-04-05T04:48:45.269Z,99832.16
2019-04-05T04:51:16.826Z,99833.96
2019-04-05T04:53:48.175Z,99839.16
2019-04-05T04:56:19.518Z,99831.38
2019-04-05T04:58:50.871Z,99835.14
2019-04-05T05:01:22.115Z,99839.44
2019-04-05T05:03:53.603Z,99834.51
2019-04-05T05:06:24.961Z,99836.47
2019-04-05T05:08:57.309Z,99838.17
2019-04-05T05:11:28.755Z,99836.98
2019-04-05T05:14:00.100Z,99844.21
2019-04-05T05:16:31.365Z,99845.05
2019-04-05T05:19:02.696Z,99846.31
2019-04-05T05:21:34.064Z,99848.37
2019-04-05T05:24:05.434Z,99847.70
2019-04-05T05:26:36.757Z,99849.07
2019-04-05T05:29:08.178Z,99845.58
2019-04-05T05:31:39.551Z,99857.10
2019-04-05T05:34:10.978Z,99848.60
2019-04-05T05:36:42.729Z,99853.67
2019-04-05T05:39:14.541Z,99857.67
2019-04-05T05:41:45.920Z,99854.48
2019-04-05T05:44:17.411Z,99856.98
2019-04-05T05:46:48.884Z,99856.34
2019-04-05T05:49:20.372Z,99850.26
2019-04-05T05:51:51.853Z,99846.69
2019-04-05T05:54:23.169Z,99859.00
2019-04-05T05:56:54.582Z,99859.00
2019-04-05T05:59:29.663Z,99862.64
2019-04-05T06:01:59.021Z,99866.45
2019-04-05T06:04:31.488Z,99859.61
2019-04-05T06:07:02.830Z,99862.10
2019-04-05T06:09:34.234Z,99864.73
2019-04-05T06:12:05.617Z,99857.66
2019-04-05T06:14:37.005Z,99867.55
2019-04-05T06:17:08.376Z,99866.86
2019-04-05T06:19:39.739Z,99870.82
2019-04-05T06:22:11.092Z,99864.29
2019-04-05T06:24:42.491Z,99868.14
2019-04-05T06:27:13.908Z,99870.44
2019-04-05T06:29:45.291Z,99873.58
2019-04-05T06:32:16.650Z,99873.52
2019-04-05T06:34:47.945Z,99876.29
2019-04-05T06:37:19.351Z,99869.98
2019-04-05T06:39:50.768Z,99876.05
2019-04-05T06:42:22.117Z,99881.08
2019-04-05T06:44:53.453Z,99873.84
2019-04-05T06:47:24.774Z,99880.39
2019-04-05T06:49:56.033Z,99876.10
2019-04-05T06:52:27.576Z,99884.06
2019-04-05T06:54:58.950Z,99872.41
2019-04-05T06:57:30.224Z,99879.98
2019-04-05T07:00:01.417Z,99883.27
2019-04-05T07:02:32.923Z,99890.26
2019-04-05T07:05:05.470Z,99888.97
2019-04-05T07:07:36.748Z,99894.09
2019-04-05T07:10:08.100Z,99897.88
2019-04-05T07:12:41.052Z,99895.27
2019-04-05T07:15:12.403Z,99898.50
2019-04-05T07:17:43.773Z,99904.47
2019-04-05T07:20:15.123Z,99901.87
2019-04-05T07:22:46.426Z,99906.45
2019-04-05T07:25:17.772Z,99913.59
2019-04-05T07:27:49.137Z,99908.78
2019-04-05T07:30:21.574Z,99910.74
2019-04-05T07:32:52.997Z,99907.25
2019-04-05T07:35:33.404Z,99906.97
2019-04-05T07:37:57.429Z,99904.70
2019-04-05T07:40:28.790Z,99913.38
2019-04-05T07:43:00.176Z,99905.77
2019-04-05T07:45:31.537Z,99904.36
2019-04-05T07:48:02.898Z,99910.45
2019-04-05T07:50:34.328Z,99907.40
2019-04-05T07:53:05.695Z,99903.48
2019-04-05T07:55:36.944Z,99909.00
2019-04-05T07:58:08.281Z,99911.05
2019-04-05T08:00:48.615Z,99904.55
2019-04-05T08:03:20.555Z,99910.77
2019-04-05T08:05:51.992Z,99909.73
2019-04-05T08:08:44.370Z,99907.18
2019-04-05T08:11:17.481Z,99904.44
2019-04-05T08:13:48.495Z,99911.02
2019-04-05T08:16:19.629Z,99905.25
2019-04-05T08:18:57.677Z,99903.77
2019-04-05T08:21:24.209Z,99916.91
2019-04-05T08:23:55.538Z,99908.92
2019-04-05T08:26:28.006Z,99903.97
2019-04-05T08:28:59.389Z,99898.57
2019-04-05T08:31:30.738Z,99898.89
2019-04-05T08:34:02.180Z,99899.63
2019-04-05T08:36:33.439Z,99899.20
2019-04-05T08:39:07.532Z,99895.56
2019-04-05T08:41:38.867Z,99895.27
2019-04-05T08:44:10.060Z,99894.66
2019-04-05T08:46:41.394Z,99903.02
2019-04-05T08:49:12.790Z,99895.89
2019-04-05T08:51:44.135Z,99897.18
2019-04-05T08:54:15.493Z,99897.94
2019-04-05T08:56:46.860Z,99898.16
2019-04-05T08:59:18.285Z,99896.34
2019-04-05T09:01:49.605Z,99894.91
2019-04-05T09:04:21.015Z,99898.33
2019-04-05T09:06:52.296Z,99890.30
2019-04-05T09:09:23.646Z,99890.91
2019-04-05T09:11:55.045Z,99882.98
2019-04-05T09:14:26.415Z,99891.91
2019-04-05T09:16:57.796Z,99893.24
2019-04-05T09:19:29.144Z,99883.58
2019-04-05T09:22:00.666Z,99875.17
2019-04-05T09:24:32.051Z,99880.39
2019-04-05T09:27:03.395Z,99879.73
2019-04-05T09:29:34.776Z,99877.73
2019-04-05T09:32:06.154Z,99873.42
2019-04-05T09:34:37.527Z,99874.67
2019-04-05T09:37:09.902Z,99871.78
2019-04-05T09:39:41.297Z,99862.59
2019-04-05T09:42:12.658Z,99868.92
2019-04-05T09:44:44.013Z,99867.39
2019-04-05T09:47:15.361Z,99872.81
2019-04-05T09:49:46.776Z,99879.33
2019-04-05T09:52:18.155Z,99877.08
2019-04-05T09:54:49.519Z,99874.15
2019-04-05T09:57:20.882Z,99883.31
2019-04-05T09:59:52.239Z,99875.89
2019-04-05T10:02:23.591Z,99878.42
2019-04-05T10:04:54.959Z,99882.89
2019-04-05T10:07:26.327Z,99871.95
2019-04-05T10:09:57.698Z,99874.15
2019-04-05T10:12:29.058Z,99870.31
2019-04-05T10:15:00.381Z,99870.47
2019-04-05T10:17:33.023Z,99883.41
2019-04-05T10:20:06.772Z,99870.06
2019-04-05T10:22:38.085Z,99871.33
2019-04-05T10:25:09.445Z,99866.02
2019-04-05T10:27:40.737Z,99857.98
2019-04-05T10:30:12.282Z,99856.33
2019-04-05T10:32:46.077Z,99862.68
2019-04-05T10:35:16.724Z,99856.16
2019-04-05T10:37:48.020Z,99847.84
2019-04-05T10:40:19.977Z,99843.14
2019-04-05T10:42:51.363Z,99850.64
2019-04-05T10:45:22.641Z,99854.83
2019-04-05T10:47:53.955Z,99849.91
2019-04-05T10:50:25.309Z,99852.75
2019-04-05T10:52:56.621Z,99847.39
2019-04-05T10:55:28.001Z,99849.70
2019-04-05T10:57:59.399Z,99857.54
2019-04-05T11:00:30.694Z,99851.40
2019-04-05T11:03:02.041Z,99849.19
2019-04-05T11:05:33.423Z,99847.55
2019-04-05T11:08:04.933Z,99854.12
2019-04-05T11:10:36.313Z,99846.98
2019-04-05T11:13:07.676Z,99848.65
2019-04-05T11:15:39.028Z,99852.38
2019-04-05T11:18:10.436Z,99846.61
2019-04-05T11:20:41.802Z,99842.66
2019-04-05T11:23:13.200Z,99848.95
2019-04-05T11:25:44.558Z,99841.03
2019-04-05T11:28:15.914Z,99837.05
2019-04-05T11:30:47.302Z,99830.23
2019-04-05T11:33:19.878Z,99825.91
2019-04-05T11:35:52.668Z,99828.78
2019-04-05T11:38:24.528Z,99829.80
2019-04-05T11:40:56.162Z,99821.72
2019-04-05T11:43:31.137Z,99822.41
2019-04-05T11:46:01.008Z,99811.47
2019-04-05T11:48:32.364Z,99816.23
2019-04-05T11:51:03.732Z,99815.61
2019-04-05T11:53:35.144Z,99804.52
2019-04-05T11:56:14.626Z,99800.39
2019-04-05T11:58:41.133Z,99806.09
2019-04-05T12:01:14.061Z,99799.62
2019-04-05T12:03:45.414Z,99804.67
2019-04-05T12:06:18.094Z,99796.48
2019-04-05T12:08:50.708Z,99803.26
2019-04-05T12:11:22.114Z,99800.72
2019-04-05T12:13:53.544Z,99796.84
2019-04-05T12:16:24.863Z,99801.17
2019-04-05T12:18:58.756Z,99799.69
2019-04-05T12:21:29.269Z,99794.12
2019-04-05T12:24:02.562Z,99791.86
2019-04-05T12:26:34.488Z,99787.63
2019-04-05T12:29:06.386Z,99785.03
2019-04-05T12:31:37.767Z,99785.77
2019-04-05T12:34:09.172Z,99783.20
2019-04-05T12:36:40.517Z,99781.23
2019-04-05T12:39:11.863Z,99778.91
2019-04-05T12:41:44.875Z,99777.91
2019-04-05T12:44:16.272Z,99779.17
2019-04-05T12:46:47.646Z,99777.89
2019-04-05T12:49:18.995Z,99781.92
2019-04-05T12:51:50.276Z,99779.91
2019-04-05T12:54:22.637Z,99777.30
2019-04-05T12:56:54.341Z,99774.64
2019-04-05T12:59:26.775Z,99770.57
2019-04-05T13:01:59.653Z,99766.32
2019-04-05T13:04:31.193Z,99769.77
2019-04-05T13:07:02.549Z,99760.84
2019-04-05T13:09:33.917Z,99766.12
2019-04-05T13:12:05.326Z,99764.20
2019-04-05T13:14:36.680Z,99759.45
2019-04-05T13:17:09.076Z,99766.36
2019-04-05T13:19:40.420Z,99757.52
2019-04-05T13:22:11.771Z,99763.48
2019-04-05T13:24:43.064Z,99767.23
2019-04-05T13:27:14.406Z,99763.80
2019-04-05T13:29:47.332Z,99761.73
2019-04-05T13:32:21.557Z,99756.48
2019-04-05T13:34:55.374Z,99753.75
2019-04-05T13:37:24.868Z,99751.34
2019-04-05T13:39:57.674Z,99757.82
2019-04-05T13:42:31.221Z,99760.18
2019-04-05T13:45:02.512Z,99761.27
2019-04-05T13:47:37.958Z,99763.37
2019-04-05T13:50:10.922Z,99766.41
2019-04-05T13:52:42.158Z,99753.75
2019-04-05T13:55:13.621Z,99758.07
2019-04-05T13:57:44.991Z,99754.81
2019-04-05T14:00:18.326Z,99756.20
2019-04-05T14:02:50.771Z,99754.04
2019-04-05T14:05:22.899Z,99748.80
2019-04-05T14:08:09.154Z,99753.28
2019-04-05T14:10:27.262Z,99758.20
2019-04-05T14:12:59.716Z,99759.50
2019-04-05T14:15:31.524Z,99756.75
2019-04-05T14:18:03.261Z,99755.93
2019-04-05T14:20:34.619Z,99755.93
2019-04-05T14:23:05.949Z,99757.41
2019-04-05T14:25:37.296Z,99759.25
2019-04-05T14:28:08.664Z,99759.59
2019-04-05T14:30:39.962Z,99758.44
2019-04-05T14:33:11.389Z,99758.26
2019-04-05T14:35:42.712Z,99755.36
2019-04-05T14:38:14.090Z,99759.50
2019-04-05T14:40:45.460Z,99755.44
2019-04-05T14:43:16.825Z,99760.16
2019-04-05T14:45:48.194Z,99761.27
2019-04-05T14:48:19.549Z,99763.88
2019-04-05T14:50:50.864Z,99766.78
2019-04-05T14:53:23.203Z,99774.08
2019-04-05T14:55:54.584Z,99766.05
2019-04-05T14:58:25.966Z,99763.69
2019-04-05T15:00:57.329Z,99765.55
2019-04-05T15:03:28.715Z,99763.47
2019-04-05T15:06:01.048Z,99767.33
2019-04-05T15:08:32.404Z,99762.97
2019-04-05T15:11:03.750Z,99766.15
2019-04-05T15:13:35.135Z,99765.75
2019-04-05T15:16:06.540Z,99765.63
2019-04-05T15:18:37.901Z,99761.45
2019-04-05T15:21:09.290Z,99760.37
2019-04-05T15:23:41.375Z,99768.11
2019-04-05T15:26:12.977Z,99767.23
2019-04-05T15:28:44.324Z,99765.95
2019-04-05T15:31:15.738Z,99767.30
2019-04-05T15:33:47.065Z,99767.70
2019-04-05T15:36:18.453Z,99764.39
2019-04-05T15:38:49.737Z,99768.77
2019-04-05T15:41:21.193Z,99764.70
2019-04-05T15:43:52.461Z,99766.66
2019-04-05T15:46:23.807Z,99764.81
2019-04-05T15:48:55.178Z,99769.80
2019-04-05T15:51:26.575Z,99761.66
2019-04-05T15:54:01.132Z,99763.55
2019-04-05T15:56:33.262Z,99768.09
2019-04-05T15:59:04.843Z,99767.95
2019-04-05T16:01:36.369Z,99766.98
2019-04-05T16:04:07.688Z,99760.00
2019-04-05T16:06:39.296Z,99766.94
2019-04-05T16:09:13.211Z,99764.59
2019-04-05T16:11:44.690Z,99766.13
2019-04-05T16:14:16.035Z,99767.27
2019-04-05T16:16:47.539Z,99768.55
2019-04-05T16:19:18.905Z,99771.87
2019-04-05T16:21:50.272Z,99774.00
2019-04-05T16:24:21.625Z,99773.80
2019-04-05T16:26:53.023Z,99774.80
2019-04-05T16:29:24.351Z,99773.33
2019-04-05T16:31:55.678Z,99779.84
2019-04-05T16:34:27.034Z,99787.89
2019-04-05T16:36:58.302Z,99790.43
2019-04-05T16:39:29.628Z,99786.46
2019-04-05T16:42:01.008Z,99789.74
2019-04-05T16:44:32.372Z,99800.48
2019-04-05T16:47:03.770Z,99797.36
2019-04-05T16:49:35.190Z,99802.31
2019-04-05T16:52:06.725Z,99809.80
2019-04-05T16:54:38.085Z,99804.86
2019-04-05T16:57:10.429Z,99810.32
2019-04-05T16:59:41.778Z,99811.75
2019-04-05T17:02:13.079Z,99815.22
2019-04-05T17:04:46.013Z,99812.68
2019-04-05T17:07:17.396Z,99815.41
2019-04-05T17:09:48.757Z,99816.81
2019-04-05T17:12:21.670Z,99818.02
2019-04-05T17:14:54.262Z,99821.86
2019-04-05T17:17:25.559Z,99822.42
2019-04-05T17:19:56.950Z,99823.23
2019-04-05T17:22:28.337Z,99822.30
2019-04-05T17:24:59.705Z,99825.70
2019-04-05T17:27:31.025Z,99825.70
2019-04-05T17:30:03.959Z,99829.78
2019-04-05T17:32:35.572Z,99832.83
2019-04-05T17:35:07.684Z,99828.98
2019-04-05T17:37:39.039Z,99823.50
2019-04-05T17:40:11.409Z,99830.20
2019-04-05T17:42:42.758Z,99828.45
2019-04-05T17:45:14.099Z,99830.61
2019-04-05T17:47:45.454Z,99826.94
2019-04-05T17:50:19.969Z,99828.77
2019-04-05T17:52:51.314Z,99828.35
2019-04-05T17:55:22.691Z,99824.83
2019-04-05T17:57:54.041Z,99823.48
2019-04-05T18:00:26.316Z,99821.83
2019-04-05T18:02:57.701Z,99831.38
2019-04-05T18:05:29.085Z,99825.84
2019-04-05T18:08:00.344Z,99821.05
2019-04-05T18:10:31.704Z,99829.08
2019-04-05T18:13:03.216Z,99825.91
2019-04-05T18:15:34.477Z,99843.80
2019-04-05T18:18:05.906Z,99828.78
2019-04-05T18:20:37.282Z,99830.12
2019-04-05T18:23:08.647Z,99825.78
2019-04-05T18:25:39.995Z,99832.95
2019-04-05T18:28:11.348Z,99827.30
2019-04-05T18:30:42.719Z,99829.78
2019-04-05T18:33:14.058Z,99825.45
2019-04-05T18:35:45.442Z,99828.16
2019-04-05T18:38:18.007Z,99824.13
2019-04-05T18:40:49.771Z,99830.64
2019-04-05T18:43:21.170Z,99831.66
2019-04-05T18:45:52.575Z,99827.44
2019-04-05T18:48:23.945Z,99830.42
2019-04-05T18:50:55.749Z,99832.72
2019-04-05T18:53:37.167Z,99828.57
2019-04-05T18:56:00.174Z,99825.74
2019-04-05T18:58:31.534Z,99833.75
2019-04-05T19:01:02.819Z,99834.77
2019-04-05T19:03:35.281Z,99833.07
2019-04-05T19:06:06.654Z,99829.75
2019-04-05T19:08:39.890Z,99832.74
2019-04-05T19:11:11.187Z,99835.41
2019-04-05T19:13:42.601Z,99833.55
2019-04-05T19:16:13.999Z,99841.37
2019-04-05T19:18:45.320Z,99836.19
2019-04-05T19:21:16.678Z,99842.03
2019-04-05T19:23:51.128Z,99843.38
2019-04-05T19:26:21.091Z,99845.39
2019-04-05T19:28:52.404Z,99840.02
2019-04-05T19:49:18.679Z,99845.80
2019-04-05T19:51:50.035Z,99842.13
2019-04-05T19:54:21.457Z,99839.45
2019-04-05T19:56:52.817Z,99846.81
2019-04-05T19:59:24.169Z,99845.04
2019-04-05T20:01:55.529Z,99841.03
2019-04-05T20:04:26.915Z,99848.52
2019-04-05T20:06:59.368Z,99843.27
2019-04-05T20:09:30.749Z,99847.12
2019-04-05T20:12:02.099Z,99845.23
2019-04-05T20:14:33.472Z,99843.91
2019-04-05T20:17:04.802Z,99847.71
2019-04-05T20:19:36.174Z,99843.30
2019-04-05T20:22:07.499Z,99850.98
2019-04-05T20:24:38.838Z,99847.21
2019-04-05T20:27:10.252Z,99848.59
2019-04-05T20:29:41.880Z,99849.73
2019-04-05T20:32:13.225Z,99855.80
2019-04-05T20:34:44.574Z,99842.02
2019-04-05T20:37:15.889Z,99850.16
2019-04-05T20:39:47.272Z,99852.34
2019-04-05T20:42:18.621Z,99852.50
2019-04-05T20:44:50.042Z,99845.36
2019-04-05T20:47:21.425Z,99847.98
2019-04-05T20:49:52.794Z,99842.91
2019-04-05T20:52:24.153Z,99851.92
2019-04-05T20:54:55.534Z,99844.29
2019-04-05T20:57:26.892Z,99850.95
2019-04-05T20:59:58.217Z,99848.30
2019-04-05T21:02:29.570Z,99847.13
2019-04-05T21:05:00.873Z,99847.13
2019-04-05T21:07:33.532Z,99853.58
2019-04-05T21:10:06.899Z,99844.25
2019-04-05T21:12:38.179Z,99847.28
2019-04-05T21:15:09.596Z,99848.72
2019-04-05T21:17:40.924Z,99852.19
2019-04-05T21:20:12.250Z,99852.38
2019-04-05T21:22:43.581Z,99849.53
2019-04-05T21:25:14.935Z,99847.49
2019-04-05T21:27:46.337Z,99847.16
2019-04-05T21:30:17.754Z,99842.53
2019-04-05T21:32:49.031Z,99846.64
2019-04-05T21:35:20.523Z,99850.58
2019-04-05T21:37:52.130Z,99852.12
2019-04-05T21:40:23.704Z,99850.91
2019-04-05T21:42:55.268Z,99854.31
2019-04-05T21:45:26.822Z,99851.16
2019-04-05T21:47:58.430Z,99847.44
2019-04-05T21:50:30.042Z,99846.02
2019-04-05T21:53:01.609Z,99849.06
2019-04-05T21:55:35.466Z,99844.97
2019-04-05T21:58:07.014Z,99857.89
2019-04-05T22:00:42.907Z,99848.97
2019-04-05T22:03:15.980Z,99857.82
2019-04-05T22:05:47.648Z,99849.70
2019-04-05T22:08:20.574Z,99852.91
2019-04-05T22:10:52.127Z,99857.56
2019-04-05T22:13:23.821Z,99854.66
2019-04-05T22:15:55.387Z,99849.97
2019-04-05T22:18:26.937Z,99853.12
2019-04-05T22:20:58.491Z,99859.32
2019-04-05T22:23:30.064Z,99853.91
2019-04-05T22:26:01.714Z,99851.56
2019-04-05T22:28:33.266Z,99853.78
2019-04-05T22:31:04.816Z,99857.22
2019-04-05T22:33:36.336Z,99856.60
2019-04-05T22:36:07.914Z,99855.41
2019-04-05T22:38:39.500Z,99862.64
2019-04-05T22:41:11.046Z,99861.31
2019-04-05T22:43:42.593Z,99850.73
2019-04-05T22:46:14.185Z,99859.55
2019-04-05T22:48:45.749Z,99863.80
2019-04-05T22:51:17.323Z,99866.46
2019-04-05T22:53:48.938Z,99862.47
2019-04-05T22:56:20.497Z,99866.98
2019-04-05T22:58:52.063Z,99858.75
2019-04-05T23:01:23.606Z,99866.28
2019-04-05T23:03:55.212Z,99861.28
2019-04-05T23:06:27.987Z,99865.64
2019-04-05T23:08:59.528Z,99863.01
2019-04-05T23:11:31.087Z,99862.92
2019-04-05T23:14:02.619Z,99868.64
2019-04-05T23:16:34.255Z,99858.36
2019-04-05T23:19:05.826Z,99867.45
2019-04-05T23:21:37.404Z,99868.09
2019-04-05T23:24:08.950Z,99869.91
2019-04-05T23:26:40.525Z,99859.93
2019-04-05T23:29:12.089Z,99861.50
2019-04-05T23:31:43.640Z,99860.56
2019-04-05T23:34:15.387Z,99865.91
2019-04-05T23:36:46.952Z,99866.34
2019-04-05T23:39:18.496Z,99864.25
2019-04-05T23:41:50.038Z,99868.18
2019-04-05T23:44:21.624Z,99865.48
2019-04-05T23:46:53.209Z,99859.41
2019-04-05T23:49:24.701Z,99864.31
2019-04-05T23:51:57.285Z,99862.13
2019-04-05T23:54:28.842Z,99869.42
2019-04-05T23:57:00.385Z,99866.05
2019-04-05T23:59:31.929Z,99866.58
